createdAt,value
2022-11-02T00:00:08.951Z,99.99
2022-11-02T00:01:09.009Z,99.99
2022-11-02T00:02:08.989Z,99.99
2022-11-02T00:03:09.166Z,99.99
2022-11-02T00:04:08.883Z,99.94
2022-11-02T00:05:08.904Z,99.84
2022-11-02T00:06:08.864Z,99.73
2022-11-02T00:07:08.854Z,99.78
2022-11-02T00:08:08.891Z,99.78
2022-11-02T00:09:08.837Z,99.78
2022-11-02T00:10:08.814Z,99.99
2022-11-02T00:11:08.807Z,99.99
2022-11-02T00:12:08.796Z,99.99
2022-11-02T00:13:08.785Z,99.99
2022-11-02T00:14:08.766Z,99.99
2022-11-02T00:15:08.767Z,99.99
2022-11-02T00:16:08.725Z,99.88
2022-11-02T00:17:08.725Z,99.68
2022-11-02T00:18:08.727Z,99.62
2022-11-02T00:19:08.705Z,99.68
2022-11-02T00:20:08.697Z,99.82
2022-11-02T00:21:08.686Z,99.99
2022-11-02T00:22:08.668Z,99.99
2022-11-02T00:23:08.661Z,99.99
2022-11-02T00:24:08.639Z,99.99
2022-11-02T00:25:08.647Z,99.99
2022-11-02T00:26:08.618Z,99.99
2022-11-02T00:27:08.617Z,99.41
2022-11-02T00:28:08.601Z,99.25
2022-11-02T00:29:08.576Z,99.25
2022-11-02T00:30:08.569Z,99.41
2022-11-02T00:31:08.548Z,99.56
2022-11-02T00:32:08.531Z,99.72
2022-11-02T00:33:08.523Z,99.72
2022-11-02T00:34:08.489Z,99.99
2022-11-02T00:35:08.488Z,99.99
2022-11-02T00:36:08.448Z,99.99
2022-11-02T00:37:08.462Z,99.99
2022-11-02T00:38:08.420Z,99.99
2022-11-02T00:39:08.411Z,99.99
2022-11-02T00:40:08.390Z,99.99
2022-11-02T00:41:08.401Z,99.99
2022-11-02T00:42:08.383Z,99.99
2022-11-02T00:43:08.364Z,99.99
2022-11-02T00:44:08.342Z,99.99
2022-11-02T00:45:08.342Z,99.99
2022-11-02T00:46:08.329Z,99.99
2022-11-02T00:47:08.302Z,99.99
2022-11-02T00:48:08.285Z,99.99
2022-11-02T00:49:08.262Z,99.99
2022-11-02T00:50:08.233Z,99.99
2022-11-02T00:51:08.265Z,99.99
2022-11-02T00:52:08.225Z,99.99
2022-11-02T00:53:08.203Z,99.99
2022-11-02T00:54:08.193Z,99.99
2022-11-02T00:55:08.199Z,99.99
2022-11-02T00:56:08.194Z,99.99
2022-11-02T00:57:08.166Z,99.99
2022-11-02T00:58:08.354Z,99.99
2022-11-02T00:59:08.134Z,99.99
2022-11-02T01:00:08.126Z,99.99
2022-11-02T01:01:08.244Z,99.99
2022-11-02T01:02:08.190Z,99.99
2022-11-02T01:03:08.108Z,99.99
2022-11-02T01:04:08.093Z,99.99
2022-11-02T01:05:08.083Z,99.99
2022-11-02T01:06:08.086Z,99.99
2022-11-02T01:07:08.097Z,99.99
2022-11-02T01:08:08.087Z,99.99
2022-11-02T01:09:08.057Z,99.99
2022-11-02T01:10:08.039Z,99.99
2022-11-02T01:11:08.057Z,99.99
2022-11-02T01:12:08.048Z,99.99
2022-11-02T01:13:08.054Z,99.99
2022-11-02T01:14:08.028Z,99.99
2022-11-02T01:15:08.008Z,99.99
2022-11-02T01:16:07.998Z,99.99
2022-11-02T01:17:07.994Z,99.99
2022-11-02T01:18:07.989Z,99.99
2022-11-02T01:19:14.963Z,99.99
2022-11-02T01:20:07.951Z,99.99
2022-11-02T01:21:07.942Z,99.99
2022-11-02T01:22:07.924Z,99.99
2022-11-02T01:23:07.923Z,99.99
2022-11-02T01:24:07.914Z,99.99
2022-11-02T01:25:07.907Z,99.99
2022-11-02T01:26:07.874Z,99.99
2022-11-02T01:27:07.857Z,99.99
2022-11-02T01:28:07.847Z,99.99
2022-11-02T01:29:07.850Z,99.99
2022-11-02T01:30:07.803Z,99.99
2022-11-02T01:31:07.814Z,99.99
2022-11-02T01:32:07.818Z,99.99
2022-11-02T01:33:07.794Z,99.99
2022-11-02T01:34:07.795Z,99.99
2022-11-02T01:35:07.775Z,99.99
2022-11-02T01:36:07.759Z,99.99
2022-11-02T01:37:07.737Z,99.99
2022-11-02T01:38:07.799Z,99.99
2022-11-02T01:39:07.713Z,99.99
2022-11-02T01:40:07.687Z,99.99
2022-11-02T01:41:07.677Z,99.99
2022-11-02T01:42:07.649Z,99.99
2022-11-02T01:43:07.643Z,99.99
2022-11-02T01:44:07.634Z,99.99
2022-11-02T01:45:07.629Z,99.99
2022-11-02T01:46:07.620Z,99.99
2022-11-02T01:47:07.601Z,99.99
2022-11-02T01:48:07.585Z,99.99
2022-11-02T01:49:07.599Z,99.99
2022-11-02T01:50:07.575Z,99.99
2022-11-02T01:51:07.583Z,99.99
2022-11-02T01:52:07.587Z,99.99
2022-11-02T01:53:07.548Z,99.99
2022-11-02T01:54:07.540Z,99.99
2022-11-02T01:55:07.565Z,99.99
2022-11-02T01:56:07.511Z,99.99
2022-11-02T01:57:07.535Z,99.99
2022-11-02T01:58:07.825Z,99.99
2022-11-02T01:59:07.495Z,99.99
2022-11-02T02:00:07.498Z,99.99
2022-11-02T02:01:07.646Z,99.99
2022-11-02T02:02:07.561Z,99.99
2022-11-02T02:03:07.473Z,99.99
2022-11-02T02:04:07.452Z,99.99
2022-11-02T02:05:07.468Z,99.99
2022-11-02T02:06:07.443Z,99.99
2022-11-02T02:07:07.442Z,99.99
2022-11-02T02:08:07.596Z,99.99
2022-11-02T02:09:07.414Z,99.99
2022-11-02T02:10:07.398Z,99.99
2022-11-02T02:11:07.393Z,99.99
2022-11-02T02:12:07.386Z,99.99
2022-11-02T02:13:07.365Z,99.99
2022-11-02T02:14:07.372Z,99.99
2022-11-02T02:15:07.366Z,99.99
2022-11-02T02:16:07.376Z,99.99
2022-11-02T02:17:07.333Z,99.99
2022-11-02T02:18:07.557Z,99.99
2022-11-02T02:19:07.360Z,99.99
2022-11-02T02:20:07.319Z,99.99
2022-11-02T02:21:07.294Z,99.99
2022-11-02T02:22:07.276Z,99.99
2022-11-02T02:23:07.276Z,99.99
2022-11-02T02:24:07.255Z,99.99
2022-11-02T02:25:07.246Z,99.99
2022-11-02T02:26:07.246Z,99.99
2022-11-02T02:27:07.220Z,99.99
2022-11-02T02:28:07.368Z,99.99
2022-11-02T02:29:07.174Z,99.99
2022-11-02T02:30:07.169Z,99.99
2022-11-02T02:31:07.175Z,99.99
2022-11-02T02:32:07.131Z,99.99
2022-11-02T02:33:07.135Z,99.99
2022-11-02T02:34:07.089Z,99.99
2022-11-02T02:35:07.070Z,99.99
2022-11-02T02:36:07.072Z,99.99
2022-11-02T02:37:07.052Z,99.99
2022-11-02T02:38:07.316Z,99.99
2022-11-02T02:39:07.012Z,99.99
2022-11-02T02:40:06.992Z,99.99
2022-11-02T02:41:06.988Z,99.99
2022-11-02T02:42:07.007Z,99.99
2022-11-02T02:43:06.972Z,99.99
2022-11-02T02:44:06.941Z,99.99
2022-11-02T02:45:06.931Z,99.99
2022-11-02T02:46:06.926Z,99.99
2022-11-02T02:47:06.901Z,99.99
2022-11-02T02:48:07.218Z,99.99
2022-11-02T02:49:06.867Z,99.99
2022-11-02T02:50:06.853Z,99.99
2022-11-02T02:51:06.827Z,99.99
2022-11-02T02:52:06.832Z,99.99
2022-11-02T02:53:06.804Z,99.99
2022-11-02T02:54:06.790Z,99.99
2022-11-02T02:55:06.776Z,99.99
2022-11-02T02:56:06.774Z,99.99
2022-11-02T02:57:06.742Z,99.99
2022-11-02T02:58:07.011Z,99.99
2022-11-02T02:59:06.706Z,99.99
2022-11-02T03:00:06.699Z,99.99
2022-11-02T03:01:06.676Z,99.99
2022-11-02T03:02:06.754Z,99.99
2022-11-02T03:03:06.675Z,99.99
2022-11-02T03:04:06.636Z,99.99
2022-11-02T03:05:06.657Z,99.99
2022-11-02T03:06:06.610Z,99.99
2022-11-02T03:07:06.590Z,99.99
2022-11-02T03:08:06.926Z,99.99
2022-11-02T03:09:06.588Z,99.99
2022-11-02T03:10:06.569Z,99.99
2022-11-02T03:11:06.550Z,99.99
2022-11-02T03:12:06.538Z,99.99
2022-11-02T03:13:06.520Z,99.99
2022-11-02T03:14:06.522Z,99.99
2022-11-02T03:15:06.498Z,99.99
2022-11-02T03:16:06.488Z,99.99
2022-11-02T03:17:06.486Z,99.99
2022-11-02T03:18:06.890Z,99.99
2022-11-02T03:19:06.472Z,99.99
2022-11-02T03:20:06.443Z,99.99
2022-11-02T03:21:06.421Z,99.99
2022-11-02T03:22:06.432Z,99.99
2022-11-02T03:23:06.391Z,99.99
2022-11-02T03:24:06.405Z,99.99
2022-11-02T03:25:06.374Z,99.99
2022-11-02T03:26:06.361Z,99.99
2022-11-02T03:27:06.342Z,99.99
2022-11-02T03:28:06.586Z,99.99
2022-11-02T03:29:06.343Z,99.99
2022-11-02T03:30:06.333Z,99.99
2022-11-02T03:31:06.323Z,99.99
2022-11-02T03:32:06.307Z,99.99
2022-11-02T03:33:06.301Z,99.99
2022-11-02T03:34:06.294Z,99.99
2022-11-02T03:35:06.291Z,99.99
2022-11-02T03:36:06.287Z,99.99
2022-11-02T03:37:06.327Z,99.99
2022-11-02T03:38:06.778Z,99.99
2022-11-02T03:39:06.249Z,99.99
2022-11-02T03:40:06.236Z,99.99
2022-11-02T03:41:06.224Z,99.99
2022-11-02T03:42:06.224Z,99.99
2022-11-02T03:43:06.196Z,99.99
2022-11-02T03:44:06.169Z,99.99
2022-11-02T03:45:06.168Z,99.99
2022-11-02T03:46:06.148Z,99.99
2022-11-02T03:47:06.129Z,99.99
2022-11-02T03:48:06.482Z,99.99
2022-11-02T03:49:08.414Z,99.99
2022-11-02T03:50:06.111Z,99.99
2022-11-02T03:51:06.112Z,99.99
2022-11-02T03:52:06.080Z,99.99
2022-11-02T03:53:06.065Z,99.99
2022-11-02T03:54:06.048Z,99.99
2022-11-02T03:55:06.062Z,99.99
2022-11-02T03:56:06.044Z,99.99
2022-11-02T03:57:06.011Z,99.99
2022-11-02T03:58:06.175Z,99.99
2022-11-02T03:59:05.970Z,99.99
2022-11-02T04:00:05.983Z,99.99
2022-11-02T04:01:05.963Z,99.99
2022-11-02T04:02:06.070Z,99.99
2022-11-02T04:03:05.943Z,99.99
2022-11-02T04:04:05.932Z,99.99
2022-11-02T04:05:05.940Z,99.99
2022-11-02T04:06:05.935Z,99.99
2022-11-02T04:07:05.910Z,99.99
2022-11-02T04:08:06.261Z,99.99
2022-11-02T04:09:05.902Z,99.99
2022-11-02T04:10:05.891Z,99.99
2022-11-02T04:11:05.917Z,99.99
2022-11-02T04:12:05.887Z,99.99
2022-11-02T04:13:05.854Z,99.99
2022-11-02T04:14:05.844Z,99.99
2022-11-02T04:15:05.836Z,99.99
2022-11-02T04:16:05.829Z,99.99
2022-11-02T04:17:05.839Z,99.99
2022-11-02T04:18:06.175Z,99.99
2022-11-02T04:19:05.799Z,99.99
2022-11-02T04:20:05.793Z,99.99
2022-11-02T04:21:05.774Z,99.99
2022-11-02T04:22:05.778Z,99.99
2022-11-02T04:23:05.772Z,99.99
2022-11-02T04:24:05.757Z,99.99
2022-11-02T04:25:05.746Z,99.99
2022-11-02T04:26:05.750Z,99.99
2022-11-02T04:27:05.739Z,99.99
2022-11-02T04:28:06.000Z,99.99
2022-11-02T04:29:05.727Z,99.99
2022-11-02T04:30:05.711Z,99.99
2022-11-02T04:31:05.717Z,99.99
2022-11-02T04:32:05.731Z,99.99
2022-11-02T04:33:05.696Z,99.99
2022-11-02T04:34:05.698Z,99.99
2022-11-02T04:35:05.691Z,99.99
2022-11-02T04:36:05.695Z,99.99
2022-11-02T04:37:05.693Z,99.99
2022-11-02T04:38:05.891Z,99.99
2022-11-02T04:39:05.686Z,99.99
2022-11-02T04:40:05.691Z,99.99
2022-11-02T04:41:05.679Z,99.99
2022-11-02T04:42:05.689Z,99.99
2022-11-02T04:43:05.689Z,99.99
2022-11-02T04:44:05.708Z,99.99
2022-11-02T04:45:05.671Z,99.99
2022-11-02T04:46:05.664Z,99.99
2022-11-02T04:47:05.642Z,99.99
2022-11-02T04:48:05.979Z,99.99
2022-11-02T04:49:05.621Z,99.99
2022-11-02T04:50:05.610Z,99.99
2022-11-02T04:51:05.592Z,99.99
2022-11-02T04:52:05.603Z,99.99
2022-11-02T04:53:05.602Z,99.99
2022-11-02T04:54:05.606Z,99.99
2022-11-02T04:55:05.581Z,99.99
2022-11-02T04:56:05.598Z,99.99
2022-11-02T04:57:05.574Z,99.99
2022-11-02T04:58:05.855Z,99.99
2022-11-02T04:59:05.562Z,99.99
2022-11-02T05:00:05.562Z,99.99
2022-11-02T05:01:05.548Z,99.99
2022-11-02T05:02:05.668Z,99.99
2022-11-02T05:03:08.180Z,99.99
2022-11-02T05:04:06.534Z,99.99
2022-11-02T05:05:05.539Z,99.99
2022-11-02T05:06:05.525Z,99.99
2022-11-02T05:07:05.504Z,99.99
2022-11-02T05:08:06.027Z,99.99
2022-11-02T05:09:05.497Z,99.99
2022-11-02T05:10:05.497Z,99.99
2022-11-02T05:11:05.480Z,99.99
2022-11-02T05:12:05.482Z,99.99
2022-11-02T05:13:05.454Z,99.99
2022-11-02T05:14:05.534Z,99.99
2022-11-02T05:15:05.427Z,99.99
2022-11-02T05:16:05.427Z,99.99
2022-11-02T05:17:05.420Z,99.99
2022-11-02T05:18:05.738Z,99.99
2022-11-02T05:19:08.362Z,99.99
2022-11-02T05:20:06.406Z,99.99
2022-11-02T05:21:05.355Z,99.99
2022-11-02T05:22:05.358Z,99.99
2022-11-02T05:23:05.538Z,99.99
2022-11-02T05:24:05.374Z,99.99
2022-11-02T05:25:05.287Z,99.99
2022-11-02T05:26:05.269Z,99.99
2022-11-02T05:27:05.246Z,99.99
2022-11-02T05:28:05.220Z,99.99
2022-11-02T05:29:05.194Z,99.99
2022-11-02T05:30:05.224Z,99.99
2022-11-02T05:31:05.157Z,99.99
2022-11-02T05:32:05.143Z,99.99
2022-11-02T05:33:05.453Z,99.99
2022-11-02T05:34:05.100Z,99.99
2022-11-02T05:35:05.072Z,99.99
2022-11-02T05:36:05.033Z,99.99
2022-11-02T05:37:05.002Z,99.99
2022-11-02T05:38:05.156Z,99.99
2022-11-02T05:39:04.971Z,99.99
2022-11-02T05:40:04.945Z,99.99
2022-11-02T05:41:04.915Z,99.99
2022-11-02T05:42:04.897Z,99.99
2022-11-02T05:43:05.205Z,99.99
2022-11-02T05:44:04.833Z,99.99
2022-11-02T05:45:04.803Z,99.99
2022-11-02T05:46:04.805Z,99.99
2022-11-02T05:47:04.746Z,99.99
2022-11-02T05:48:04.725Z,99.99
2022-11-02T05:49:04.685Z,99.99
2022-11-02T05:50:04.676Z,99.99
2022-11-02T05:51:04.652Z,99.99
2022-11-02T05:52:04.618Z,99.99
2022-11-02T05:53:04.810Z,99.99
2022-11-02T05:54:04.674Z,99.99
2022-11-02T05:55:04.544Z,99.99
2022-11-02T05:56:04.526Z,99.99
2022-11-02T05:57:04.517Z,99.99
2022-11-02T05:58:04.497Z,99.99
2022-11-02T05:59:04.460Z,99.99
2022-11-02T06:00:04.446Z,99.99
2022-11-02T06:01:04.417Z,99.99
2022-11-02T06:02:04.484Z,99.99
2022-11-02T06:03:04.747Z,99.99
2022-11-02T06:04:04.365Z,99.99
2022-11-02T06:05:04.422Z,99.99
2022-11-02T06:06:04.310Z,99.99
2022-11-02T06:07:04.295Z,99.99
2022-11-02T06:08:04.268Z,99.99
2022-11-02T06:09:07.062Z,99.99
2022-11-02T06:10:04.246Z,99.99
2022-11-02T06:11:04.219Z,99.99
2022-11-02T06:12:04.192Z,99.99
2022-11-02T06:13:04.752Z,99.99
2022-11-02T06:14:04.178Z,99.99
2022-11-02T06:15:04.154Z,99.99
2022-11-02T06:16:04.160Z,99.99
2022-11-02T06:17:04.139Z,99.99
2022-11-02T06:18:04.130Z,99.99
2022-11-02T06:19:04.185Z,99.99
2022-11-02T06:20:04.102Z,99.99
2022-11-02T06:21:04.109Z,99.99
2022-11-02T06:22:04.072Z,99.99
2022-11-02T06:23:04.528Z,99.99
2022-11-02T06:24:04.065Z,99.99
2022-11-02T06:25:04.040Z,99.99
2022-11-02T06:26:04.043Z,99.99
2022-11-02T06:27:04.032Z,99.99
2022-11-02T06:28:04.005Z,99.99
2022-11-02T06:29:03.981Z,99.99
2022-11-02T06:30:03.967Z,99.99
2022-11-02T06:31:03.963Z,99.99
2022-11-02T06:32:03.953Z,99.99
2022-11-02T06:33:06.998Z,99.99
2022-11-02T06:34:03.915Z,99.99
2022-11-02T06:35:03.894Z,99.99
2022-11-02T06:36:03.897Z,99.99
2022-11-02T06:37:03.885Z,99.99
2022-11-02T06:38:03.856Z,99.99
2022-11-02T06:39:03.847Z,99.99
2022-11-02T06:40:03.826Z,99.99
2022-11-02T06:41:03.807Z,99.99
2022-11-02T06:42:03.793Z,99.99
2022-11-02T06:43:15.801Z,99.99
2022-11-02T06:44:04.749Z,99.99
2022-11-02T06:45:03.728Z,99.99
2022-11-02T06:46:03.705Z,99.99
2022-11-02T06:47:03.705Z,99.99
2022-11-02T06:48:03.668Z,99.99
2022-11-02T06:49:03.669Z,99.99
2022-11-02T06:50:03.639Z,99.99
2022-11-02T06:51:03.618Z,99.99
2022-11-02T06:52:03.607Z,99.99
2022-11-02T06:53:03.870Z,99.99
2022-11-02T06:54:08.264Z,99.99
2022-11-02T06:55:04.548Z,99.99
2022-11-02T06:56:03.510Z,99.99
2022-11-02T06:57:03.523Z,99.99
2022-11-02T06:58:03.482Z,99.99
2022-11-02T06:59:03.469Z,99.99
2022-11-02T07:00:03.478Z,99.99
2022-11-02T07:01:03.498Z,99.99
2022-11-02T07:02:03.605Z,99.99
2022-11-02T07:03:03.611Z,99.99
2022-11-02T07:04:03.373Z,99.99
2022-11-02T07:05:03.382Z,99.99
2022-11-02T07:06:03.342Z,99.99
2022-11-02T07:07:03.343Z,99.99
2022-11-02T07:08:03.314Z,99.99
2022-11-02T07:09:03.302Z,99.99
2022-11-02T07:10:03.363Z,99.99
2022-11-02T07:11:03.262Z,99.99
2022-11-02T07:12:03.253Z,99.99
2022-11-02T07:13:03.839Z,99.99
2022-11-02T07:14:03.213Z,99.99
2022-11-02T07:15:03.184Z,99.99
2022-11-02T07:16:03.161Z,99.99
2022-11-02T07:17:03.165Z,99.99
2022-11-02T07:18:03.124Z,99.99
2022-11-02T07:19:03.106Z,99.99
2022-11-02T07:20:03.087Z,99.99
2022-11-02T07:21:03.074Z,99.99
2022-11-02T07:22:03.067Z,99.99
2022-11-02T07:23:03.360Z,99.99
2022-11-02T07:24:03.023Z,99.99
2022-11-02T07:25:03.006Z,99.99
2022-11-02T07:26:03.000Z,99.99
2022-11-02T07:27:02.986Z,99.99
2022-11-02T07:28:02.968Z,99.99
2022-11-02T07:29:02.951Z,99.99
2022-11-02T07:30:02.938Z,99.99
2022-11-02T07:31:02.908Z,99.99
2022-11-02T07:32:02.898Z,99.99
2022-11-02T07:33:03.324Z,99.99
2022-11-02T07:34:02.855Z,99.99
2022-11-02T07:35:02.838Z,99.99
2022-11-02T07:36:02.808Z,99.99
2022-11-02T07:37:02.789Z,99.99
2022-11-02T07:38:02.783Z,99.99
2022-11-02T07:39:02.755Z,99.99
2022-11-02T07:40:02.720Z,99.99
2022-11-02T07:41:02.699Z,99.99
2022-11-02T07:42:02.718Z,99.99
2022-11-02T07:43:03.070Z,99.99
2022-11-02T07:44:02.625Z,99.99
2022-11-02T07:45:02.602Z,99.99
2022-11-02T07:46:02.578Z,99.99
2022-11-02T07:47:02.594Z,99.99
2022-11-02T07:48:02.533Z,99.99
2022-11-02T07:49:02.522Z,99.99
2022-11-02T07:50:02.493Z,99.99
2022-11-02T07:51:02.464Z,99.99
2022-11-02T07:52:02.445Z,99.99
2022-11-02T07:53:02.677Z,99.99
2022-11-02T07:54:02.402Z,99.99
2022-11-02T07:55:02.384Z,99.99
2022-11-02T07:56:02.346Z,99.99
2022-11-02T07:57:02.314Z,99.99
2022-11-02T07:58:02.307Z,99.99
2022-11-02T07:59:02.270Z,99.99
2022-11-02T08:00:02.250Z,99.99
2022-11-02T08:01:02.210Z,99.99
2022-11-02T08:02:02.156Z,99.99
2022-11-02T08:03:02.508Z,99.99
2022-11-02T08:04:02.099Z,99.99
2022-11-02T08:05:02.066Z,99.99
2022-11-02T08:06:02.026Z,99.99
2022-11-02T08:07:01.998Z,99.99
2022-11-02T08:08:02.145Z,99.99
2022-11-02T08:09:01.935Z,99.99
2022-11-02T08:10:01.915Z,99.99
2022-11-02T08:11:01.877Z,99.82
2022-11-02T08:12:01.846Z,99.62
2022-11-02T08:13:01.808Z,99.62
2022-11-02T08:14:01.793Z,99.41
2022-11-02T08:15:07.196Z,99.16
2022-11-02T08:16:02.709Z,98.96
2022-11-02T08:17:01.668Z,98.75
2022-11-02T08:18:01.761Z,98.65
2022-11-02T08:19:01.621Z,98.75
2022-11-02T08:20:01.573Z,98.85
2022-11-02T08:21:01.533Z,98.70
2022-11-02T08:22:01.490Z,98.80
2022-11-02T08:23:01.467Z,98.80
2022-11-02T08:24:01.430Z,98.39
2022-11-02T08:25:01.418Z,98.19
2022-11-02T08:26:01.349Z,98.19
2022-11-02T08:27:01.303Z,98.19
2022-11-02T08:28:01.438Z,97.99
2022-11-02T08:29:01.222Z,97.78
2022-11-02T08:30:01.194Z,97.78
2022-11-02T08:31:01.149Z,98.08
2022-11-02T08:32:01.096Z,97.99
2022-11-02T08:33:01.062Z,97.99
2022-11-02T08:34:01.014Z,98.19
2022-11-02T08:35:01.020Z,98.29
2022-11-02T08:36:00.928Z,98.39
2022-11-02T08:37:00.883Z,98.39
2022-11-02T08:38:00.843Z,98.08
2022-11-02T08:39:00.793Z,97.57
2022-11-02T08:40:00.754Z,97.78
2022-11-02T08:41:00.719Z,97.88
2022-11-02T08:42:00.795Z,97.99
2022-11-02T08:43:00.638Z,97.99
2022-11-02T08:44:00.563Z,97.67
2022-11-02T08:45:00.537Z,97.88
2022-11-02T08:46:15.623Z,97.88
2022-11-02T08:47:04.187Z,97.57
2022-11-02T08:48:01.551Z,97.37
2022-11-02T08:49:00.399Z,97.57
2022-11-02T08:50:00.287Z,97.88
2022-11-02T08:51:00.276Z,97.78
2022-11-02T08:52:00.200Z,97.88
2022-11-02T08:53:00.165Z,97.78
2022-11-02T08:54:00.098Z,97.37
2022-11-02T08:55:00.079Z,97.67
2022-11-02T08:56:00.011Z,97.88
2022-11-02T08:56:59.964Z,97.88
2022-11-02T08:57:59.899Z,97.88
2022-11-02T08:58:59.860Z,97.78
2022-11-02T08:59:59.808Z,97.83
2022-11-02T09:00:59.818Z,97.94
2022-11-02T09:01:59.871Z,98.25
2022-11-02T09:02:59.753Z,97.94
2022-11-02T09:03:59.648Z,97.83
2022-11-02T09:04:59.622Z,97.53
2022-11-02T09:05:59.536Z,97.83
2022-11-02T09:06:59.530Z,97.12
2022-11-02T09:07:59.451Z,97.17
2022-11-02T09:08:59.396Z,97.07
2022-11-02T09:09:59.341Z,96.87
2022-11-02T09:10:59.294Z,97.28
2022-11-02T09:11:59.272Z,96.82
2022-11-02T09:12:59.219Z,96.31
2022-11-02T09:13:59.180Z,96.47
2022-11-02T09:14:59.095Z,95.44
2022-11-02T09:15:59.071Z,95.24
2022-11-02T09:16:59.043Z,94.99
2022-11-02T09:17:58.932Z,95.09
2022-11-02T09:18:58.887Z,94.07
2022-11-02T09:19:58.831Z,93.45
2022-11-02T09:20:58.785Z,94.07
2022-11-02T09:22:00.849Z,93.96
2022-11-02T09:22:59.677Z,93.35
2022-11-02T09:23:58.615Z,93.96
2022-11-02T09:24:58.580Z,93.96
2022-11-02T09:25:58.530Z,93.76
2022-11-02T09:26:58.470Z,93.96
2022-11-02T09:27:58.429Z,94.43
2022-11-02T09:28:58.395Z,94.64
2022-11-02T09:29:58.310Z,94.54
2022-11-02T09:30:58.263Z,93.51
2022-11-02T09:31:58.201Z,93.30
2022-11-02T09:32:58.198Z,92.96
2022-11-02T09:33:58.122Z,92.28
2022-11-02T09:34:58.052Z,92.59
2022-11-02T09:35:57.992Z,92.08
2022-11-02T09:36:57.942Z,92.08
2022-11-02T09:37:57.881Z,92.49
2022-11-02T09:38:57.852Z,92.69
2022-11-02T09:39:57.815Z,92.90
2022-11-02T09:40:57.732Z,93.00
2022-11-02T09:41:57.672Z,93.20
2022-11-02T09:42:57.643Z,93.51
2022-11-02T09:43:57.575Z,93.71
2022-11-02T09:44:57.523Z,93.92
2022-11-02T09:45:57.468Z,93.51
2022-11-02T09:47:39.754Z,93.51
2022-11-02T09:48:24.818Z,93.51
2022-11-02T09:48:58.315Z,92.38
2022-11-02T09:49:57.225Z,93.62
2022-11-02T09:51:00.937Z,93.82
2022-11-02T09:51:58.110Z,94.29
2022-11-02T09:52:57.057Z,93.77
2022-11-02T09:53:56.998Z,93.88
2022-11-02T09:54:56.938Z,92.96
2022-11-02T09:55:56.885Z,91.31
2022-11-02T09:56:56.818Z,92.65
2022-11-02T09:57:56.759Z,91.93
2022-11-02T09:58:56.720Z,92.30
2022-11-02T09:59:56.618Z,91.73
2022-11-02T10:01:01.596Z,90.70
2022-11-02T10:01:57.509Z,90.60
2022-11-02T10:02:56.530Z,91.07
2022-11-02T10:03:56.395Z,90.66
2022-11-02T10:04:56.340Z,90.56
2022-11-02T10:05:56.285Z,90.45
2022-11-02T10:06:56.201Z,90.77
2022-11-02T10:07:56.141Z,89.98
2022-11-02T10:08:56.092Z,90.86
2022-11-02T10:09:56.032Z,90.25
2022-11-02T10:10:55.964Z,89.74
2022-11-02T10:11:55.900Z,90.36
2022-11-02T10:12:55.845Z,90.97
2022-11-02T10:13:56.950Z,90.21
2022-11-02T10:14:55.712Z,88.78
2022-11-02T10:15:55.635Z,87.90
2022-11-02T10:16:55.594Z,88.51
2022-11-02T10:17:55.512Z,88.10
2022-11-02T10:18:55.443Z,88.71
2022-11-02T10:19:55.394Z,89.43
2022-11-02T10:20:55.326Z,89.64
2022-11-02T10:21:55.264Z,89.29
2022-11-02T10:22:55.207Z,88.78
2022-11-02T10:23:55.163Z,89.50
2022-11-02T10:24:55.106Z,88.78
2022-11-02T10:25:55.009Z,88.47
2022-11-02T10:26:54.947Z,89.50
2022-11-02T10:27:54.937Z,87.76
2022-11-02T10:28:54.827Z,88.33
2022-11-02T10:29:54.757Z,87.41
2022-11-02T10:30:54.678Z,87.20
2022-11-02T10:31:54.607Z,88.02
2022-11-02T10:32:54.557Z,88.33
2022-11-02T10:33:57.113Z,86.69
2022-11-02T10:34:59.099Z,86.08
2022-11-02T10:36:55.279Z,86.79
2022-11-02T10:37:54.206Z,85.73
2022-11-02T10:38:54.143Z,85.36
2022-11-02T10:39:54.070Z,85.97
2022-11-02T10:40:54.024Z,85.73
2022-11-02T10:41:53.931Z,85.32
2022-11-02T10:42:53.874Z,84.61
2022-11-02T10:43:53.800Z,85.12
2022-11-02T10:44:53.746Z,84.71
2022-11-02T10:45:53.680Z,86.96
2022-11-02T10:46:53.606Z,86.14
2022-11-02T10:47:53.533Z,83.95
2022-11-02T10:48:53.471Z,83.85
2022-11-02T10:49:53.384Z,83.28
2022-11-02T10:50:53.321Z,84.50
2022-11-02T10:51:53.241Z,82.93
2022-11-02T10:52:53.426Z,83.28
2022-11-02T10:53:53.157Z,83.65
2022-11-02T10:54:53.016Z,84.26
2022-11-02T10:55:52.954Z,82.63
2022-11-02T10:56:52.864Z,80.79
2022-11-02T10:57:52.804Z,81.71
2022-11-02T10:58:52.715Z,81.65
2022-11-02T10:59:56.842Z,81.95
2022-11-02T11:00:52.849Z,83.38
2022-11-02T11:01:52.681Z,83.24
2022-11-02T11:02:52.417Z,82.22
2022-11-02T11:03:52.345Z,81.40
2022-11-02T11:04:52.258Z,81.40
2022-11-02T11:05:52.188Z,81.87
2022-11-02T11:06:52.137Z,79.97
2022-11-02T11:07:52.050Z,79.46
2022-11-02T11:08:51.970Z,80.18
2022-11-02T11:09:51.909Z,80.69
2022-11-02T11:10:51.831Z,80.89
2022-11-02T11:11:51.770Z,81.24
2022-11-02T11:12:51.683Z,79.25
2022-11-02T11:15:52.479Z,80.76
2022-11-02T11:16:51.629Z,79.91
2022-11-02T11:19:52.185Z,79.23
2022-11-02T11:20:51.123Z,78.92
2022-11-02T11:21:51.053Z,80.15
2022-11-02T11:22:50.993Z,79.33
2022-11-02T11:23:50.914Z,79.33
2022-11-02T11:24:50.835Z,80.15
2022-11-02T11:25:50.774Z,80.97
2022-11-02T11:26:50.710Z,79.43
2022-11-02T11:27:50.632Z,78.31
2022-11-02T11:28:50.576Z,79.53
2022-11-02T11:29:50.475Z,80.25
2022-11-02T11:31:00.177Z,80.52
2022-11-02T11:31:51.344Z,80.11
2022-11-02T11:32:50.278Z,79.50
2022-11-02T11:33:50.192Z,78.48
2022-11-02T11:34:50.125Z,78.88
2022-11-02T11:35:50.075Z,78.88
2022-11-02T11:36:49.975Z,79.39
2022-11-02T11:37:49.931Z,79.05
2022-11-02T11:38:49.830Z,78.44
2022-11-02T11:39:53.916Z,78.64
2022-11-02T11:40:50.690Z,78.30
2022-11-02T11:41:49.634Z,77.79
2022-11-02T11:42:49.540Z,78.30
2022-11-02T11:43:49.495Z,76.77
2022-11-02T11:44:49.389Z,77.83
2022-11-02T11:45:49.329Z,78.75
2022-11-02T11:46:49.268Z,77.31
2022-11-02T11:47:49.195Z,77.72
2022-11-02T11:48:49.124Z,77.31
2022-11-02T11:50:08.193Z,77.42
2022-11-02T11:50:49.983Z,77.42
2022-11-02T11:51:48.910Z,78.03
2022-11-02T11:52:48.862Z,77.76
2022-11-02T11:53:48.782Z,77.45
2022-11-02T11:54:48.693Z,77.66
2022-11-02T11:55:48.623Z,78.78
2022-11-02T11:56:48.546Z,78.48
2022-11-02T11:57:48.494Z,78.78
2022-11-02T11:58:50.462Z,78.38
2022-11-02T11:59:48.326Z,77.39
2022-11-02T12:00:48.254Z,78.31
2022-11-02T12:01:48.355Z,77.29
2022-11-02T12:02:48.192Z,77.80
2022-11-02T12:03:48.055Z,77.39
2022-11-02T12:04:47.978Z,76.94
2022-11-02T12:05:47.914Z,78.78
2022-11-02T12:06:47.844Z,77.76
2022-11-02T12:07:51.996Z,76.74
2022-11-02T12:08:48.706Z,77.35
2022-11-02T12:09:47.637Z,77.66
2022-11-02T12:10:47.557Z,78.48
2022-11-02T12:11:47.492Z,77.90
2022-11-02T12:12:47.418Z,78.31
2022-11-02T12:13:47.366Z,78.82
2022-11-02T12:14:47.270Z,79.53
2022-11-02T12:15:47.211Z,79.23
2022-11-02T12:16:47.130Z,79.53
2022-11-02T12:17:47.070Z,79.53
2022-11-02T12:18:47.066Z,78.92
2022-11-02T12:19:46.950Z,79.53
2022-11-02T12:20:46.852Z,80.15
2022-11-02T12:21:46.790Z,80.56
2022-11-02T12:22:46.714Z,80.56
2022-11-02T12:23:46.641Z,80.56
2022-11-02T12:24:46.582Z,80.05
2022-11-02T12:25:46.490Z,79.02
2022-11-02T12:26:46.409Z,77.80
2022-11-02T12:27:46.345Z,77.59
2022-11-02T12:28:46.280Z,78.20
2022-11-02T12:29:46.215Z,77.49
2022-11-02T12:30:46.123Z,76.78
2022-11-02T12:31:46.062Z,77.29
2022-11-02T12:32:45.995Z,77.90
2022-11-02T12:33:45.915Z,78.41
2022-11-02T12:34:52.903Z,76.26
2022-11-02T12:35:47.466Z,77.29
2022-11-02T12:37:11.222Z,73.68
2022-11-02T12:37:46.626Z,74.59
2022-11-02T12:38:45.566Z,75.17
2022-11-02T12:39:45.487Z,74.46
2022-11-02T12:40:45.424Z,74.11
2022-11-02T12:41:45.348Z,74.83
2022-11-02T12:42:45.267Z,70.95
2022-11-02T12:43:45.196Z,71.97
2022-11-02T12:44:45.127Z,73.10
2022-11-02T12:45:45.066Z,73.10
2022-11-02T12:46:48.741Z,73.06
2022-11-02T12:47:44.908Z,73.16
2022-11-02T12:48:44.840Z,72.96
2022-11-02T12:49:44.777Z,72.86
2022-11-02T12:50:44.700Z,70.81
2022-11-02T12:51:44.623Z,71.84
2022-11-02T12:52:44.542Z,72.82
2022-11-02T12:53:44.480Z,73.43
2022-11-02T12:54:44.408Z,72.11
2022-11-02T12:55:44.352Z,72.00
2022-11-02T12:56:44.267Z,72.62